ADDS METAR Data INFO
IDs: Format: Raw Decoded Include TAF

Data at: 1458 UTC 11 Dec 2017

KAIB 111455Z AUTO 12005KT 10SM CLR M08/M23 A3058 RMK AO2
KAIB 111435Z AUTO 13004KT 10SM CLR M09/M24 A3058 RMK AO2
KAIB 111415Z AUTO 13005KT 10SM CLR M08/M23 A3058 RMK AO2
KAIB 111355Z AUTO 14004KT 10SM CLR M10/M23 A3057 RMK AO2
KAIB 111335Z AUTO 11006KT 10SM CLR M09/M24 A3056 RMK AO2
KAIB 111315Z AUTO 15005KT 10SM CLR M08/M24 A3057 RMK AO2
KAIB 111255Z AUTO 12005KT 10SM CLR M08/M24 A3057 RMK AO2
KAIB 111235Z AUTO 12009KT 10SM CLR M08/M24 A3056 RMK AO2
KAIB 111215Z AUTO 11007KT 10SM CLR M08/M24 A3056 RMK AO2
KAIB 111155Z AUTO 11004KT 10SM CLR M06/M23 A3056 RMK AO2
KAIB 111135Z AUTO 11006KT 10SM CLR M07/M23 A3056 RMK AO2
KAIB 111115Z AUTO 10005KT 10SM CLR M06/M23 A3056 RMK AO2
KAIB 111055Z AUTO 13004KT 10SM CLR M07/M23 A3056 RMK AO2
KAIB 111035Z AUTO 09008KT 10SM CLR M08/M24 A3056 RMK AO2
KAIB 111015Z AUTO 11006KT 10SM CLR M05/M23 A3056 RMK AO2
KAIB 110955Z AUTO 12004KT 10SM CLR M05/M23 A3055 RMK AO2
KAIB 110935Z AUTO 14005KT 10SM CLR M07/M23 A3056 RMK AO2
KAIB 110855Z AUTO 13004KT 10SM CLR M03/M23 A3056 RMK AO2
KAIB 110835Z AUTO 09004KT 10SM CLR M06/M23 A3056 RMK AO2
KAIB 110755Z AUTO 12005KT 10SM CLR M06/M23 A3057 RMK AO2
KAIB 110735Z AUTO 00000KT 10SM CLR M03/M23 A3058 RMK AO2
KAIB 110655Z AUTO 09008KT 10SM CLR M05/M23 A3056 RMK AO2
KAIB 110635Z AUTO 09007KT 10SM CLR M03/M23 A3055 RMK AO2
KAIB 110615Z AUTO 12008KT 10SM CLR M04/M23 A3054 RMK AO2
KAIB 110555Z AUTO 11006KT 10SM CLR M03/M23 A3055 RMK AO2
KAIB 110535Z AUTO 10005KT 10SM CLR M03/M23 A3055 RMK AO2
KAIB 110515Z AUTO 10008KT 10SM CLR M03/M23 A3054 RMK AO2
KAIB 110455Z AUTO 13004KT 10SM CLR M03/M22 A3054 RMK AO2
KAIB 110415Z AUTO 09008KT 10SM CLR M01/M23 A3054 RMK AO2
KAIB 110355Z AUTO 11011KT 10SM CLR M01/M23 A3054 RMK AO2
KAIB 110335Z AUTO 12009KT 10SM CLR M01/M23 A3054 RMK AO2
KAIB 110315Z AUTO 12008KT 10SM CLR M01/M22 A3054 RMK AO2
KAIB 110255Z AUTO 11008KT 10SM CLR M01/M22 A3054 RMK AO2
KAIB 110235Z AUTO 09008KT 10SM CLR 00/M22 A3054 RMK AO2
KAIB 110215Z AUTO 11004KT 10SM CLR 02/M22 A3054 RMK AO2
KAIB 110155Z AUTO 00000KT 10SM CLR 05/M21 A3053 RMK AO2
KAIB 110135Z AUTO 00000KT 10SM CLR 06/M21 A3052 RMK AO2
KAIB 110115Z AUTO 00000KT 10SM CLR 06/M21 A3051 RMK AO2
KAIB 110055Z AUTO 00000KT 10SM CLR 06/M21 A3051 RMK AO2
KAIB 110035Z AUTO 00000KT 10SM CLR 07/M21 A3051 RMK AO2
KAIB 110015Z AUTO 00000KT 10SM CLR 07/M21 A3051 RMK AO2
KAIB 102355Z AUTO 36003KT 10SM CLR 08/M21 A3051 RMK AO2
KAIB 102335Z AUTO 36003KT 10SM CLR 08/M21 A3051 RMK AO2
KAIB 102315Z AUTO 00000KT 10SM CLR 08/M21 A3052 RMK AO2
KAIB 102255Z AUTO 32003KT 10SM CLR 08/M21 A3052 RMK AO2
KAIB 102235Z AUTO 00000KT 10SM CLR 08/M21 A3053 RMK AO2
KAIB 102215Z AUTO 00000KT 10SM CLR 08/M21 A3053 RMK AO2
KAIB 102155Z AUTO 00000KT 10SM CLR 07/M21 A3054 RMK AO2
KAIB 102135Z AUTO 00000KT 10SM CLR 07/M21 A3054 RMK AO2
KAIB 102055Z AUTO 01003KT 10SM CLR 06/M20 A3056 RMK AO2
KAIB 102035Z AUTO 00000KT 10SM CLR 05/M20 A3057 RMK AO2
KAIB 101955Z AUTO 00000KT 10SM CLR 02/M20 A3059 RMK AO2
KAIB 101935Z AUTO 00000KT 10SM CLR 02/M19 A3060 RMK AO2
KAIB 101915Z AUTO 00000KT 10SM CLR 01/M20 A3061 RMK AO2
KAIB 101835Z AUTO 00000KT 10SM CLR 00/M19 A3062 RMK AO2
KAIB 101815Z AUTO 00000KT 10SM CLR M01/M19 A3062 RMK AO2
KAIB 101715Z AUTO 12003KT 10SM CLR M04/M21 A3063 RMK AO2
KAIB 101635Z AUTO 12005KT 10SM CLR M06/M22 A3063 RMK AO2
KAIB 101615Z AUTO 14004KT 10SM CLR M07/M22 A3063 RMK AO2
KAIB 101555Z AUTO 11004KT 10SM CLR M10/M22 A3062 RMK AO2
KAIB 101535Z AUTO 11006KT 10SM CLR M10/M22 A3062 RMK AO2
KAIB 101515Z AUTO 10004KT 10SM CLR M10/M23 A3061 RMK AO2
KAIB 101435Z AUTO 12004KT 10SM CLR M08/M22 A3061 RMK AO2
KAIB 101415Z AUTO 00000KT 10SM CLR M09/M22 A3060 RMK AO2
KAIB 101355Z AUTO 11007KT 10SM CLR M08/M22 A3060 RMK AO2
KAIB 101335Z AUTO 11007KT 10SM CLR M08/M22 A3060 RMK AO2
KAIB 101315Z AUTO 15005KT 10SM CLR M09/M22 A3060 RMK AO2
KAIB 101255Z AUTO 14005KT 10SM CLR M10/M22 A3060 RMK AO2
KAIB 101235Z AUTO 11006KT 10SM CLR M08/M22 A3060 RMK AO2
KAIB 101215Z AUTO 10007KT 10SM CLR M09/M22 A3059 RMK AO2
KAIB 101155Z AUTO 09007KT 10SM CLR M07/M22 A3059 RMK AO2
KAIB 101135Z AUTO 00000KT 10SM CLR M08/M22 A3060 RMK AO2
KAIB 101115Z AUTO 12005KT 10SM CLR M08/M22 A3059 RMK AO2
KAIB 101055Z AUTO 12006KT 10SM CLR M07/M22 A3059 RMK AO2
KAIB 101035Z AUTO 11005KT 10SM CLR M06/M21 A3059 RMK AO2
KAIB 101015Z AUTO 13006KT 10SM CLR M06/M21 A3059 RMK AO2
KAIB 100955Z AUTO 11008KT 10SM CLR M06/M21 A3059 RMK AO2
KAIB 100935Z AUTO 11008KT 10SM CLR M06/M21 A3059 RMK AO2
KAIB 100915Z AUTO 11010KT 10SM CLR M06/M21 A3059 RMK AO2
KAIB 100855Z AUTO 12007KT 10SM CLR M06/M21 A3059 RMK AO2
KAIB 100835Z AUTO 12005KT 10SM CLR M05/M21 A3059 RMK AO2
KAIB 100815Z AUTO 13004KT 10SM CLR M04/M21 A3059 RMK AO2
KAIB 100755Z AUTO 13003KT 10SM CLR M05/M21 A3059 RMK AO2
KAIB 100735Z AUTO 12006KT 10SM CLR M04/M21 A3059 RMK AO2
KAIB 100715Z AUTO 12009KT 10SM CLR M04/M21 A3059 RMK AO2
KAIB 100655Z AUTO 13008KT 10SM CLR M04/M20 A3059 RMK AO2
KAIB 100635Z AUTO 10010KT 10SM CLR M04/M20 A3058 RMK AO2
KAIB 100615Z AUTO 12007KT 10SM CLR M03/M20 A3058 RMK AO2
KAIB 100555Z AUTO 10006KT 10SM CLR M02/M20 A3058 RMK AO2
KAIB 100535Z AUTO 16005KT 10SM CLR M02/M20 A3057 RMK AO2
KAIB 100515Z AUTO 10008KT 10SM CLR M02/M20 A3056 RMK AO2
KAIB 100455Z AUTO 11008KT 10SM CLR M02/M20 A3056 RMK AO2
KAIB 100415Z AUTO 10008KT 10SM CLR M01/M20 A3056 RMK AO2
KAIB 100355Z AUTO 11009KT 10SM CLR M01/M20 A3056 RMK AO2
KAIB 100335Z AUTO 11008KT 10SM CLR M01/M19 A3055 RMK AO2
KAIB 100315Z AUTO 11008KT 10SM CLR M01/M19 A3055 RMK AO2